sensor_id;sensor_type;location;lat;lon;timestamp;pressure;altitude;pressure_sealevel;temperature;humidity
70458;BME280;57919;56.194;95.716;2023-02-13T00:07:55;101232.06;;;-26.08;57.49
70458;BME280;57919;56.194;95.716;2023-02-13T00:17:57;101218.56;;;-26.07;57.13
70458;BME280;57919;56.194;95.716;2023-02-13T00:27:59;101205.75;;;-26.27;57.28
70458;BME280;57919;56.194;95.716;2023-02-13T00:38:02;101214.41;;;-26.35;57.33
70458;BME280;57919;56.194;95.716;2023-02-13T00:48:03;101192.75;;;-26.30;57.68
70458;BME280;57919;56.194;95.716;2023-02-13T00:58:05;101163.34;;;-26.27;57.21
70458;BME280;57919;56.194;95.716;2023-02-13T01:08:07;101179.50;;;-26.26;57.25
70458;BME280;57919;56.194;95.716;2023-02-13T01:18:12;101189.13;;;-26.13;57.35
70458;BME280;57919;56.194;95.716;2023-02-13T01:28:14;101168.91;;;-26.02;57.34
70458;BME280;57919;56.194;95.716;2023-02-13T01:38:17;101170.63;;;-25.82;57.47
70458;BME280;57919;56.194;95.716;2023-02-13T01:48:24;101190.25;;;-25.61;57.66
70458;BME280;57919;56.194;95.716;2023-02-13T01:58:32;101188.91;;;-25.37;57.76
70458;BME280;57919;56.194;95.716;2023-02-13T02:08:36;101207.28;;;-25.10;57.62
70458;BME280;57919;56.194;95.716;2023-02-13T02:18:40;101161.22;;;-25.02;58.02
70458;BME280;57919;56.194;95.716;2023-02-13T02:39:12;101170.66;;;-24.48;57.67
70458;BME280;57919;56.194;95.716;2023-02-13T02:49:16;101131.09;;;-24.64;56.65
70458;BME280;57919;56.194;95.716;2023-02-13T02:59:39;101151.78;;;-23.97;58.13
70458;BME280;57919;56.194;95.716;2023-02-13T03:10:05;101116.16;;;-23.05;57.97
70458;BME280;57919;56.194;95.716;2023-02-13T03:20:44;101075.06;;;-22.71;57.06
70458;BME280;57919;56.194;95.716;2023-02-13T03:31:27;101076.44;;;-21.91;57.24
70458;BME280;57919;56.194;95.716;2023-02-13T03:41:41;101069.69;;;-21.28;56.72
70458;BME280;57919;56.194;95.716;2023-02-13T03:51:54;101069.38;;;-21.19;56.30
70458;BME280;57919;56.194;95.716;2023-02-13T04:02:16;101063.06;;;-21.11;55.14
70458;BME280;57919;56.194;95.716;2023-02-13T04:22:50;101012.38;;;-21.01;55.10
70458;BME280;57919;56.194;95.716;2023-02-13T04:32:52;101020.50;;;-20.94;55.56
70458;BME280;57919;56.194;95.716;2023-02-13T04:42:54;101014.16;;;-20.19;55.55
70458;BME280;57919;56.194;95.716;2023-02-13T04:52:57;100999.56;;;-19.48;55.01
70458;BME280;57919;56.194;95.716;2023-02-13T05:03:04;100985.66;;;-19.22;54.98
70458;BME280;57919;56.194;95.716;2023-02-13T05:13:06;100973.41;;;-18.49;56.58
70458;BME280;57919;56.194;95.716;2023-02-13T05:23:12;100933.78;;;-18.19;54.33
70458;BME280;57919;56.194;95.716;2023-02-13T05:33:24;100854.66;;;-18.98;53.44
70458;BME280;57919;56.194;95.716;2023-02-13T05:43:27;100888.72;;;-18.73;55.33
70458;BME280;57919;56.194;95.716;2023-02-13T05:53:29;100850.16;;;-17.88;55.33
70458;BME280;57919;56.194;95.716;2023-02-13T06:03:31;100873.09;;;-17.07;54.11
70458;BME280;57919;56.194;95.716;2023-02-13T06:13:33;100847.25;;;-17.07;54.08
70458;BME280;57919;56.194;95.716;2023-02-13T06:23:35;100837.50;;;-16.56;53.97
70458;BME280;57919;56.194;95.716;2023-02-13T06:33:37;100826.69;;;-16.67;53.69
70458;BME280;57919;56.194;95.716;2023-02-13T06:43:39;100855.50;;;-16.21;54.22
70458;BME280;57919;56.194;95.716;2023-02-13T06:53:41;100835.13;;;-16.13;53.99
70458;BME280;57919;56.194;95.716;2023-02-13T07:03:43;100791.72;;;-16.57;53.62
70458;BME280;57919;56.194;95.716;2023-02-13T07:13:45;100793.28;;;-16.42;54.99
70458;BME280;57919;56.194;95.716;2023-02-13T07:23:47;100777.28;;;-15.72;55.49
70458;BME280;57919;56.194;95.716;2023-02-13T07:33:49;100767.97;;;-15.24;55.74
70458;BME280;57919;56.194;95.716;2023-02-13T07:43:52;100734.72;;;-14.89;54.56
70458;BME280;57919;56.194;95.716;2023-02-13T07:53:54;100733.34;;;-14.80;54.39
70458;BME280;57919;56.194;95.716;2023-02-13T08:03:56;100711.91;;;-14.50;54.64
70458;BME280;57919;56.194;95.716;2023-02-13T08:13:59;100725.63;;;-14.29;54.64
70458;BME280;57919;56.194;95.716;2023-02-13T08:24:01;100724.69;;;-14.31;53.71
70458;BME280;57919;56.194;95.716;2023-02-13T08:34:04;100733.97;;;-14.63;53.53
70458;BME280;57919;56.194;95.716;2023-02-13T08:44:05;100723.34;;;-15.15;54.64
70458;BME280;57919;56.194;95.716;2023-02-13T08:54:07;100712.44;;;-15.29;54.35
70458;BME280;57919;56.194;95.716;2023-02-13T09:04:10;100729.25;;;-15.19;54.11
70458;BME280;57919;56.194;95.716;2023-02-13T09:14:11;100723.47;;;-15.12;54.36
70458;BME280;57919;56.194;95.716;2023-02-13T09:24:13;100709.38;;;-15.19;54.78
70458;BME280;57919;56.194;95.716;2023-02-13T09:34:15;100703.19;;;-15.22;54.11
70458;BME280;57919;56.194;95.716;2023-02-13T09:44:26;100687.38;;;-15.51;54.88
70458;BME280;57919;56.194;95.716;2023-02-13T09:54:37;100709.78;;;-15.53;54.97
70458;BME280;57919;56.194;95.716;2023-02-13T10:15:31;100709.16;;;-15.90;55.28
70458;BME280;57919;56.194;95.716;2023-02-13T10:26:01;100685.31;;;-16.23;54.76
70458;BME280;57919;56.194;95.716;2023-02-13T10:36:14;100718.81;;;-16.28;54.84
70458;BME280;57919;56.194;95.716;2023-02-13T10:46:26;100717.53;;;-16.38;55.53
70458;BME280;57919;56.194;95.716;2023-02-13T10:56:35;100701.94;;;-15.97;55.95
70458;BME280;57919;56.194;95.716;2023-02-13T11:06:55;100700.25;;;-16.18;55.18
70458;BME280;57919;56.194;95.716;2023-02-13T11:17:22;100701.22;;;-16.35;55.47
70458;BME280;57919;56.194;95.716;2023-02-13T11:27:32;100687.50;;;-16.53;55.46
70458;BME280;57919;56.194;95.716;2023-02-13T11:37:34;100682.06;;;-16.59;55.57
70458;BME280;57919;56.194;95.716;2023-02-13T11:47:39;100701.34;;;-16.53;56.32
70458;BME280;57919;56.194;95.716;2023-02-13T11:57:41;100686.81;;;-16.49;55.90
70458;BME280;57919;56.194;95.716;2023-02-13T12:07:59;100702.22;;;-16.52;56.21
70458;BME280;57919;56.194;95.716;2023-02-13T12:28:17;100697.88;;;-16.32;56.53
70458;BME280;57919;56.194;95.716;2023-02-13T12:38:43;100696.06;;;-16.35;56.75
70458;BME280;57919;56.194;95.716;2023-02-13T13:10:23;100686.19;;;-17.22;59.83
70458;BME280;57919;56.194;95.716;2023-02-13T13:20:35;100691.00;;;-17.30;59.35
70458;BME280;57919;56.194;95.716;2023-02-13T13:30:41;100676.44;;;-17.28;60.18
70458;BME280;57919;56.194;95.716;2023-02-13T13:40:52;100663.38;;;-17.31;60.04
70458;BME280;57919;56.194;95.716;2023-02-13T13:50:58;100647.72;;;-17.34;60.20
70458;BME280;57919;56.194;95.716;2023-02-13T14:11:48;100630.81;;;-17.08;60.10
70458;BME280;57919;56.194;95.716;2023-02-13T14:21:49;100607.88;;;-16.59;59.74
70458;BME280;57919;56.194;95.716;2023-02-13T14:32:03;100601.28;;;-16.09;59.70
70458;BME280;57919;56.194;95.716;2023-02-13T14:42:25;100616.53;;;-16.17;58.64
70458;BME280;57919;56.194;95.716;2023-02-13T14:52:33;100624.44;;;-16.14;58.50
70458;BME280;57919;56.194;95.716;2023-02-13T15:02:45;100624.44;;;-16.14;58.49
70458;BME280;57919;56.194;95.716;2023-02-13T15:12:58;100627.69;;;-15.97;58.51
70458;BME280;57919;56.194;95.716;2023-02-13T15:23:01;100624.63;;;-16.30;60.39
70458;BME280;57919;56.194;95.716;2023-02-13T15:33:15;100618.06;;;-16.22;60.58
70458;BME280;57919;56.194;95.716;2023-02-13T15:43:22;100598.88;;;-16.05;60.27
70458;BME280;57919;56.194;95.716;2023-02-13T15:53:26;100605.91;;;-16.02;60.07
70458;BME280;57919;56.194;95.716;2023-02-13T16:03:29;100603.75;;;-16.12;61.16
70458;BME280;57919;56.194;95.716;2023-02-13T16:13:33;100612.81;;;-16.23;60.95
70458;BME280;57919;56.194;95.716;2023-02-13T16:23:35;100606.94;;;-16.19;62.34
70458;BME280;57919;56.194;95.716;2023-02-13T16:33:39;100606.28;;;-16.14;61.92
70458;BME280;57919;56.194;95.716;2023-02-13T16:43:52;100592.34;;;-16.17;61.76
70458;BME280;57919;56.194;95.716;2023-02-13T16:54:02;100598.69;;;-16.09;62.42
70458;BME280;57919;56.194;95.716;2023-02-13T17:04:22;100587.16;;;-16.17;62.30
70458;BME280;57919;56.194;95.716;2023-02-13T17:14:25;100586.97;;;-16.22;62.94
70458;BME280;57919;56.194;95.716;2023-02-13T17:24:27;100587.78;;;-16.23;63.89
70458;BME280;57919;56.194;95.716;2023-02-13T17:34:29;100589.94;;;-16.13;63.81
70458;BME280;57919;56.194;95.716;2023-02-13T17:44:31;100585.94;;;-16.05;63.97
70458;BME280;57919;56.194;95.716;2023-02-13T17:54:32;100575.31;;;-16.11;65.02
70458;BME280;57919;56.194;95.716;2023-02-13T18:04:34;100571.28;;;-16.04;64.76
70458;BME280;57919;56.194;95.716;2023-02-13T18:14:36;100576.75;;;-15.96;65.11
70458;BME280;57919;56.194;95.716;2023-02-13T18:24:40;100589.47;;;-15.80;64.99
70458;BME280;57919;56.194;95.716;2023-02-13T18:34:42;100583.75;;;-15.72;65.01
70458;BME280;57919;56.194;95.716;2023-02-13T18:44:45;100583.28;;;-15.61;65.23
70458;BME280;57919;56.194;95.716;2023-02-13T18:54:47;100585.00;;;-15.62;65.29
70458;BME280;57919;56.194;95.716;2023-02-13T19:04:48;100567.78;;;-15.60;65.45
70458;BME280;57919;56.194;95.716;2023-02-13T19:14:50;100583.22;;;-15.63;66.67
70458;BME280;57919;56.194;95.716;2023-02-13T19:24:52;100567.69;;;-15.63;66.44
70458;BME280;57919;56.194;95.716;2023-02-13T19:34:54;100568.09;;;-15.51;67.18
70458;BME280;57919;56.194;95.716;2023-02-13T19:44:56;100569.81;;;-15.27;67.21
70458;BME280;57919;56.194;95.716;2023-02-13T19:54:57;100573.03;;;-15.11;67.14
70458;BME280;57919;56.194;95.716;2023-02-13T20:04:59;100569.97;;;-14.99;66.44
70458;BME280;57919;56.194;95.716;2023-02-13T20:15:02;100560.22;;;-15.06;67.83
70458;BME280;57919;56.194;95.716;2023-02-13T20:25:05;100535.81;;;-15.11;67.30
70458;BME280;57919;56.194;95.716;2023-02-13T20:35:07;100549.59;;;-14.63;66.78
70458;BME280;57919;56.194;95.716;2023-02-13T20:45:09;100542.53;;;-14.40;66.20
70458;BME280;57919;56.194;95.716;2023-02-13T20:55:11;100538.94;;;-14.17;65.29
70458;BME280;57919;56.194;95.716;2023-02-13T21:05:14;100536.78;;;-14.03;65.41
70458;BME280;57919;56.194;95.716;2023-02-13T21:15:15;100528.88;;;-14.06;65.10
70458;BME280;57919;56.194;95.716;2023-02-13T21:25:19;100522.84;;;-14.05;65.50
70458;BME280;57919;56.194;95.716;2023-02-13T21:35:20;100525.88;;;-13.91;65.61
70458;BME280;57919;56.194;95.716;2023-02-13T21:45:23;100529.91;;;-13.73;65.22
70458;BME280;57919;56.194;95.716;2023-02-13T21:55:24;100532.81;;;-13.62;65.18
70458;BME280;57919;56.194;95.716;2023-02-13T22:05:28;100538.91;;;-13.61;64.92
70458;BME280;57919;56.194;95.716;2023-02-13T22:15:30;100537.28;;;-13.58;64.79
70458;BME280;57919;56.194;95.716;2023-02-13T22:25:32;100512.19;;;-13.56;65.57
70458;BME280;57919;56.194;95.716;2023-02-13T22:35:40;100528.00;;;-13.48;65.23
70458;BME280;57919;56.194;95.716;2023-02-13T22:45:43;100547.34;;;-13.68;66.32
70458;BME280;57919;56.194;95.716;2023-02-13T22:55:44;100564.44;;;-13.77;66.94
70458;BME280;57919;56.194;95.716;2023-02-13T23:05:46;100558.47;;;-13.74;67.36
70458;BME280;57919;56.194;95.716;2023-02-13T23:15:48;100574.38;;;-13.63;67.52
70458;BME280;57919;56.194;95.716;2023-02-13T23:25:52;100573.38;;;-13.68;68.21
70458;BME280;57919;56.194;95.716;2023-02-13T23:35:53;100573.81;;;-13.53;67.52
70458;BME280;57919;56.194;95.716;2023-02-13T23:45:56;100576.38;;;-13.25;66.81
70458;BME280;57919;56.194;95.716;2023-02-13T23:55:57;100573.47;;;-13.04;65.80
